createdAt,value
2023-04-03T00:02:42.340Z,5.51
2023-04-03T00:05:44.527Z,5.62
2023-04-03T00:08:46.543Z,5.66
2023-04-03T00:11:48.479Z,5.62
2023-04-03T00:14:50.760Z,5.56
2023-04-03T00:17:52.745Z,5.68
2023-04-03T00:20:54.714Z,5.58
2023-04-03T00:23:56.567Z,5.73
2023-04-03T00:26:58.422Z,5.55
2023-04-03T00:30:00.838Z,5.57
2023-04-03T00:33:03.849Z,5.52
2023-04-03T00:36:13.576Z,5.42
2023-04-03T00:39:15.535Z,5.51
2023-04-03T00:42:17.685Z,5.50
2023-04-03T00:45:24.936Z,5.33
2023-04-03T00:48:31.835Z,5.28
2023-04-03T00:51:34.220Z,5.29
2023-04-03T00:54:37.507Z,5.21
2023-04-03T00:57:39.730Z,5.04
2023-04-03T01:00:45.082Z,5.14
2023-04-03T01:03:47.258Z,4.98
2023-04-03T01:06:50.059Z,4.84
2023-04-03T01:09:56.952Z,4.65
2023-04-03T01:13:00.903Z,4.60
2023-04-03T01:16:05.779Z,4.61
2023-04-03T01:19:16.542Z,4.74
2023-04-03T01:22:32.238Z,4.59
2023-04-03T01:25:35.745Z,4.57
2023-04-03T01:28:38.627Z,4.50
2023-04-03T01:32:02.795Z,4.11
2023-04-03T01:35:07.963Z,4.04
2023-04-03T01:38:09.886Z,3.89
2023-04-03T01:41:12.092Z,3.91
2023-04-03T01:44:14.059Z,3.77
2023-04-03T01:47:16.156Z,3.80
2023-04-03T01:50:20.386Z,3.79
2023-04-03T01:53:23.146Z,4.06
2023-04-03T01:56:25.050Z,4.16
2023-04-03T01:59:27.543Z,4.11
2023-04-03T02:02:29.655Z,4.16
2023-04-03T02:05:31.981Z,4.06
2023-04-03T02:08:34.027Z,4.07
2023-04-03T02:11:36.201Z,4.10
2023-04-03T02:14:38.225Z,3.96
2023-04-03T02:17:40.206Z,4.02
2023-04-03T02:20:42.302Z,3.92
2023-04-03T02:23:44.191Z,3.77
2023-04-03T02:26:46.319Z,3.88
2023-04-03T02:29:48.379Z,3.75
2023-04-03T02:32:50.760Z,3.69
2023-04-03T02:35:57.410Z,3.72
2023-04-03T02:38:59.360Z,3.90
2023-04-03T02:42:01.390Z,3.78
2023-04-03T02:45:04.952Z,3.97
2023-04-03T02:48:07.050Z,3.91
2023-04-03T02:51:09.047Z,3.91
2023-04-03T02:54:11.135Z,3.80
2023-04-03T02:57:16.373Z,3.85
2023-04-03T03:00:18.800Z,3.67
2023-04-03T03:03:21.042Z,3.61
2023-04-03T03:06:23.163Z,3.66
2023-04-03T03:09:25.030Z,3.48
2023-04-03T03:12:27.364Z,3.63
2023-04-03T03:15:29.234Z,3.59
2023-04-03T03:18:31.866Z,3.50
2023-04-03T03:21:33.773Z,3.59
2023-04-03T03:24:37.661Z,3.44
2023-04-03T03:27:39.562Z,3.50
2023-04-03T03:30:42.689Z,3.57
2023-04-03T03:33:44.646Z,3.42
2023-04-03T03:36:46.709Z,3.33
2023-04-03T03:39:48.727Z,3.45
2023-04-03T03:42:50.979Z,3.38
2023-04-03T03:45:53.728Z,3.45
2023-04-03T03:48:55.872Z,3.50
2023-04-03T03:51:57.704Z,3.38
2023-04-03T03:54:59.977Z,3.34
2023-04-03T03:58:02.784Z,3.25
2023-04-03T04:01:07.694Z,3.17
2023-04-03T04:04:15.570Z,3.12
2023-04-03T04:07:17.654Z,3.09
2023-04-03T04:10:20.428Z,3.07
2023-04-03T04:13:22.755Z,2.89
2023-04-03T04:16:25.144Z,3.02
2023-04-03T04:19:27.649Z,2.94
2023-04-03T04:22:29.851Z,2.78
2023-04-03T04:25:31.981Z,2.79
2023-04-03T04:28:34.025Z,2.83
2023-04-03T04:31:38.053Z,2.77
2023-04-03T04:34:40.850Z,2.99
2023-04-03T04:37:42.988Z,3.23
2023-04-03T04:40:45.155Z,3.12
2023-04-03T04:43:47.482Z,3.50
2023-04-03T04:46:49.445Z,3.56
2023-04-03T04:49:51.839Z,3.52
2023-04-03T04:52:54.102Z,3.41
2023-04-03T04:55:56.616Z,3.31
2023-04-03T04:58:58.750Z,3.44
2023-04-03T05:02:02.643Z,3.54
2023-04-03T05:05:05.449Z,3.59
2023-04-03T05:08:09.372Z,3.60
2023-04-03T05:11:15.607Z,3.79
2023-04-03T05:14:19.376Z,3.73
2023-04-03T05:17:21.887Z,3.84
2023-04-03T05:20:28.259Z,3.97
2023-04-03T05:23:30.255Z,4.15
2023-04-03T05:26:34.366Z,4.07
2023-04-03T05:29:37.390Z,4.13
2023-04-03T05:32:41.119Z,4.33
2023-04-03T05:35:56.151Z,4.33
2023-04-03T05:39:02.529Z,4.48
2023-04-03T05:42:05.280Z,4.51
2023-04-03T05:45:08.141Z,4.71
2023-04-03T05:48:10.799Z,4.56
2023-04-03T05:51:19.524Z,4.36
2023-04-03T05:54:29.510Z,4.44
2023-04-03T05:57:38.682Z,4.57
2023-04-03T06:00:41.142Z,4.59
2023-04-03T06:03:43.293Z,5.06
2023-04-03T06:10:52.531Z,4.76
2023-04-03T06:20:32.335Z,5.06
2023-04-03T06:31:18.141Z,5.30
2023-04-03T06:34:52.316Z,5.35
2023-04-03T06:50:56.439Z,5.35
2023-04-03T07:05:22.177Z,5.69
2023-04-03T07:27:39.202Z,5.77
2023-04-03T07:37:19.613Z,6.07
2023-04-03T07:59:12.287Z,6.17
2023-04-03T08:15:31.636Z,6.18
2023-04-03T08:39:55.929Z,6.54
2023-04-03T08:56:14.678Z,6.52
2023-04-03T09:49:33.939Z,6.89
2023-04-03T09:53:41.347Z,6.82
2023-04-03T10:30:55.277Z,7.45
2023-04-03T10:58:59.687Z,7.68
2023-04-03T11:51:29.821Z,7.49
2023-04-03T12:12:29.215Z,6.60
2023-04-03T12:16:20.003Z,6.83
2023-04-03T12:20:21.798Z,6.52
2023-04-03T12:24:24.265Z,7.30
2023-04-03T12:28:06.100Z,6.59
2023-04-03T12:32:08.396Z,6.82
2023-04-03T12:36:18.539Z,6.26
2023-04-03T12:40:07.851Z,6.49
2023-04-03T12:44:04.170Z,6.76
2023-04-03T12:48:11.470Z,6.27
2023-04-03T12:51:43.106Z,6.44
2023-04-03T12:54:47.503Z,6.51
2023-04-03T12:57:49.673Z,6.44
2023-04-03T13:01:11.037Z,6.57
2023-04-03T13:04:13.662Z,6.35
2023-04-03T13:08:20.931Z,6.44
2023-04-03T13:18:01.643Z,5.86
2023-04-03T13:34:24.918Z,5.82
2023-04-03T13:38:35.074Z,6.19
2023-04-03T13:44:11.982Z,5.96
2023-04-03T14:11:19.022Z,5.58
2023-04-03T14:32:13.890Z,5.20
2023-04-03T14:37:28.001Z,5.29
2023-04-03T14:40:29.955Z,5.23
2023-04-03T14:43:31.927Z,5.08
2023-04-03T14:46:54.355Z,5.00
2023-04-03T14:49:57.593Z,5.14
2023-04-03T14:53:00.011Z,4.70
2023-04-03T14:56:02.075Z,4.42
2023-04-03T14:59:06.020Z,4.42
2023-04-03T15:02:35.967Z,4.28
2023-04-03T15:05:38.505Z,4.53
2023-04-03T15:08:42.823Z,4.19
2023-04-03T15:11:44.701Z,4.29
2023-04-03T15:14:52.896Z,3.86
2023-04-03T15:18:02.317Z,4.11
2023-04-03T15:21:04.482Z,4.04
2023-04-03T15:24:07.391Z,3.85
2023-04-03T15:27:09.805Z,3.92
2023-04-03T15:30:16.462Z,3.52
2023-04-03T15:33:18.847Z,3.70
2023-04-03T15:36:33.496Z,3.59
2023-04-03T15:39:36.516Z,3.48
2023-04-03T15:42:38.903Z,3.61
2023-04-03T15:45:41.699Z,3.60
2023-04-03T15:48:43.983Z,3.36
2023-04-03T15:51:46.298Z,3.35
2023-04-03T15:54:48.315Z,3.35
2023-04-03T15:57:50.307Z,3.29
2023-04-03T16:00:52.696Z,3.58
2023-04-03T16:03:54.973Z,3.50
2023-04-03T16:06:57.060Z,3.33
2023-04-03T16:09:59.000Z,3.25
2023-04-03T16:13:02.533Z,2.94
2023-04-03T16:16:06.019Z,3.01
2023-04-03T16:19:08.195Z,3.11
2023-04-03T16:22:10.418Z,3.00
2023-04-03T16:25:13.201Z,2.85
2023-04-03T16:28:15.616Z,2.73
2023-04-03T16:31:17.656Z,2.82
2023-04-03T16:34:19.649Z,2.70
2023-04-03T16:37:21.513Z,2.59
2023-04-03T16:40:23.541Z,2.59
2023-04-03T16:43:25.590Z,2.65
2023-04-03T16:46:27.762Z,2.71
2023-04-03T16:49:33.721Z,2.54
2023-04-03T16:52:36.306Z,2.54
2023-04-03T16:55:38.155Z,2.44
2023-04-03T16:58:40.059Z,2.22
2023-04-03T17:01:41.984Z,2.19
2023-04-03T17:04:43.846Z,2.24
2023-04-03T17:07:45.909Z,2.18
2023-04-03T17:10:50.176Z,2.18
2023-04-03T17:13:52.829Z,2.25
2023-04-03T17:16:54.780Z,2.25
2023-04-03T17:19:57.000Z,2.17
2023-04-03T17:22:59.018Z,2.16
2023-04-03T17:26:01.126Z,1.97
2023-04-03T17:29:04.565Z,2.00
2023-04-03T17:32:06.881Z,1.87
2023-04-03T17:35:11.606Z,1.95
2023-04-03T17:38:14.163Z,1.61
2023-04-03T17:41:16.180Z,1.61
2023-04-03T17:44:18.402Z,1.62
2023-04-03T17:47:20.710Z,1.58
2023-04-03T17:50:22.974Z,1.68
2023-04-03T17:53:27.506Z,1.65
2023-04-03T17:56:29.523Z,1.64
2023-04-03T17:59:31.889Z,1.45
2023-04-03T18:02:34.292Z,1.59
2023-04-03T18:05:37.585Z,1.50
2023-04-03T18:08:49.381Z,1.48
2023-04-03T18:11:53.065Z,1.63
2023-04-03T18:14:55.384Z,1.70
2023-04-03T18:17:58.220Z,1.62
2023-04-03T18:21:00.640Z,1.66
2023-04-03T18:24:03.025Z,1.58
2023-04-03T18:27:09.866Z,1.64
2023-04-03T18:30:15.411Z,1.53
2023-04-03T18:33:17.256Z,1.57
2023-04-03T18:36:19.537Z,1.52
2023-04-03T18:39:24.027Z,1.63
2023-04-03T18:42:27.447Z,1.56
2023-04-03T18:45:30.200Z,1.64
2023-04-03T18:48:34.340Z,1.53
2023-04-03T18:51:39.233Z,1.51
2023-04-03T18:54:42.849Z,1.40
2023-04-03T18:57:46.391Z,1.47
2023-04-03T19:00:48.985Z,1.39
2023-04-03T19:03:51.215Z,1.54
2023-04-03T19:06:53.476Z,1.34
2023-04-03T19:09:55.889Z,1.37
2023-04-03T19:12:57.809Z,1.51
2023-04-03T19:16:00.200Z,1.41
2023-04-03T19:19:02.104Z,1.46
2023-04-03T19:22:04.476Z,1.42
2023-04-03T19:25:09.925Z,1.39
2023-04-03T19:28:14.842Z,1.38
2023-04-03T19:31:20.908Z,1.48
2023-04-03T19:34:23.325Z,1.33
2023-04-03T19:37:26.706Z,1.39
2023-04-03T19:40:29.674Z,1.45
2023-04-03T19:43:31.928Z,1.36
2023-04-03T19:46:35.517Z,1.41
2023-04-03T19:49:38.209Z,1.45
2023-04-03T19:52:40.549Z,1.37
2023-04-03T19:55:43.414Z,1.34
2023-04-03T19:58:45.875Z,1.43
2023-04-03T20:01:47.974Z,1.40
2023-04-03T20:04:51.081Z,1.36
2023-04-03T20:07:53.319Z,1.32
2023-04-03T20:10:56.726Z,1.34
2023-04-03T20:13:59.693Z,1.31
2023-04-03T20:17:02.220Z,1.37
2023-04-03T20:20:05.225Z,1.41
2023-04-03T20:23:12.918Z,1.27
2023-04-03T20:26:24.536Z,1.22
2023-04-03T20:29:27.504Z,1.28
2023-04-03T20:32:30.276Z,1.34
2023-04-03T20:35:32.911Z,1.32
2023-04-03T20:38:34.938Z,1.34
2023-04-03T20:41:38.497Z,1.30
2023-04-03T20:44:40.636Z,1.40
2023-04-03T20:47:42.546Z,1.41
2023-04-03T20:50:45.831Z,1.38
2023-04-03T20:53:55.510Z,1.37
2023-04-03T20:57:00.363Z,1.41
2023-04-03T21:00:04.912Z,1.26
2023-04-03T21:03:08.400Z,1.29
2023-04-03T21:06:48.210Z,1.38
2023-04-03T21:10:28.417Z,1.43
2023-04-03T21:14:08.172Z,1.35
2023-04-03T21:17:09.941Z,1.38
2023-04-03T21:20:11.856Z,1.30
2023-04-03T21:23:14.564Z,1.51
2023-04-03T21:26:21.786Z,1.44
2023-04-03T21:29:23.820Z,1.43
2023-04-03T21:32:25.766Z,1.49
2023-04-03T21:35:27.803Z,1.48
2023-04-03T21:38:30.286Z,1.41
2023-04-03T21:41:32.335Z,1.38
2023-04-03T21:44:34.407Z,1.51
2023-04-03T21:47:36.654Z,1.58
2023-04-03T21:50:38.779Z,1.37
2023-04-03T21:53:41.740Z,1.48
2023-04-03T21:56:44.536Z,1.36
2023-04-03T21:59:46.782Z,1.35
2023-04-03T22:02:51.172Z,1.56
2023-04-03T22:05:58.457Z,1.42
2023-04-03T22:09:00.636Z,1.45
2023-04-03T22:12:03.626Z,1.44
2023-04-03T22:15:06.288Z,1.43
2023-04-03T22:18:08.907Z,1.41
2023-04-03T22:21:11.166Z,1.37
2023-04-03T22:24:13.467Z,1.33
2023-04-03T22:27:15.702Z,1.41
2023-04-03T22:30:18.374Z,1.40
2023-04-03T22:33:20.547Z,1.40
2023-04-03T22:36:22.452Z,1.47
2023-04-03T22:39:24.319Z,1.49
2023-04-03T22:42:26.380Z,1.47
2023-04-03T22:45:28.334Z,1.36
2023-04-03T22:48:33.751Z,1.41
2023-04-03T22:51:46.695Z,1.28
2023-04-03T22:54:48.629Z,1.45
2023-04-03T22:57:50.496Z,1.43
2023-04-03T23:00:54.159Z,1.46
2023-04-03T23:03:56.393Z,1.24
2023-04-03T23:07:00.136Z,1.37
2023-04-03T23:10:02.159Z,1.25
2023-04-03T23:13:04.028Z,1.23
2023-04-03T23:16:06.813Z,1.36
2023-04-03T23:19:08.751Z,1.39
2023-04-03T23:22:11.908Z,1.25
2023-04-03T23:25:13.799Z,1.28
2023-04-03T23:28:16.305Z,1.17
2023-04-03T23:31:18.181Z,1.21
2023-04-03T23:34:20.403Z,1.14
2023-04-03T23:37:22.233Z,1.13
2023-04-03T23:40:24.229Z,1.18
2023-04-03T23:43:26.166Z,1.21
2023-04-03T23:46:28.688Z,1.10
2023-04-03T23:49:30.820Z,1.25
2023-04-03T23:52:32.796Z,1.15
2023-04-03T23:55:35.136Z,1.11
2023-04-03T23:58:37.295Z,0.98
